Time;durP1;ratioP1;P1;durP2;ratioP2;P2;SDS_P1;SDS_P2;PMS_P1;PMS_P2;Temp;Humidity;BMP_temperature;BMP_pressure;BME280_temperature;BME280_humidity;BME280_pressure;Samples;Min_cycle;Max_cycle;Signal;HPM_P1;HPM_P2
2022/04/26 03:37:17;;;;;;;14.00;5.85;;;6.50;99.90;;;;;;5076311;28;20069;-79
2022/04/26 03:39:43;;;;;;;12.70;4.55;;;6.50;99.90;;;;;;5104818;28;20074;-79
2022/04/26 03:42:10;;;;;;;14.27;5.75;;;6.50;99.90;;;;;;5070704;28;20086;-79
2022/04/26 03:44:35;;;;;;;14.90;4.80;;;6.50;99.90;;;;;;5103875;28;20108;-79
2022/04/26 03:47:01;;;;;;;13.85;4.82;;;7.40;99.90;;;;;;5053790;28;20032;-78
2022/04/26 03:49:27;;;;;;;14.18;4.57;;;6.50;99.90;;;;;;5088352;28;20157;-79
2022/04/26 03:51:53;;;;;;;20.08;4.50;;;6.50;99.90;;;;;;5088718;28;20040;-78
2022/04/26 03:54:20;;;;;;;13.48;4.32;;;6.50;99.90;;;;;;5086466;28;20040;-79
2022/04/26 03:56:45;;;;;;;8.70;3.85;;;6.40;99.90;;;;;;5088714;28;20044;-79
2022/04/26 03:59:11;;;;;;;16.45;4.55;;;6.40;99.90;;;;;;5087981;28;20185;-79
2022/04/26 04:01:37;;;;;;;9.48;4.05;;;6.40;99.90;;;;;;5086379;28;20051;-79
2022/04/26 04:04:02;;;;;;;11.05;4.30;;;6.40;99.90;;;;;;5087888;28;20051;-79
2022/04/26 04:06:28;;;;;;;12.63;4.47;;;6.40;99.90;;;;;;5087510;28;20036;-79
2022/04/26 04:08:54;;;;;;;14.48;4.93;;;6.40;99.90;;;;;;5087960;28;20093;-79
2022/04/26 04:11:19;;;;;;;15.05;4.57;;;6.40;99.90;;;;;;5087671;28;20085;-78
2022/04/26 04:13:45;;;;;;;11.82;4.10;;;6.50;99.90;;;;;;5086724;28;20036;-78
2022/04/26 04:16:11;;;;;;;10.63;4.00;;;6.50;99.90;;;;;;5086487;28;20127;-78
2022/04/26 04:21:20;;;;;;;10.93;3.22;;;6.60;99.90;;;;;;5086987;28;20054;-79
2022/04/26 04:23:46;;;;;;;16.70;4.10;;;6.60;99.90;;;;;;5087460;28;20391;-78
2022/04/26 04:26:12;;;;;;;8.45;2.78;;;6.60;99.90;;;;;;5103493;28;20040;-79
2022/04/26 04:28:38;;;;;;;14.93;3.13;;;6.60;99.90;;;;;;5103232;28;20043;-79
2022/04/26 04:31:04;;;;;;;6.50;3.42;;;6.60;99.90;;;;;;5070172;28;20046;-76
2022/04/26 04:33:30;;;;;;;14.60;3.20;;;6.60;99.90;;;;;;5102801;28;20543;-78
2022/04/26 04:35:56;;;;;;;7.03;3.88;;;6.60;99.90;;;;;;5087200;28;20226;-79
2022/04/26 04:38:22;;;;;;;9.43;3.60;;;6.50;99.90;;;;;;5087500;28;20105;-79
2022/04/26 04:40:47;;;;;;;6.38;3.42;;;6.60;99.90;;;;;;5086925;28;20075;-79
2022/04/26 04:43:13;;;;;;;6.93;3.13;;;7.10;99.90;;;;;;5102917;28;20047;-79
2022/04/26 04:45:40;;;;;;;10.90;3.38;;;6.50;99.90;;;;;;5068659;28;20067;-79
2022/04/26 04:48:06;;;;;;;15.50;3.90;;;6.50;99.90;;;;;;5069428;28;20122;-79
2022/04/26 04:50:32;;;;;;;12.07;4.03;;;6.50;99.90;;;;;;5085710;28;20123;-79
2022/04/26 04:52:58;;;;;;;14.77;4.35;;;6.50;99.90;;;;;;5102902;28;20036;-77
2022/04/26 04:55:24;;;;;;;20.17;4.18;;;6.50;99.90;;;;;;5103423;28;20044;-79
2022/04/26 04:57:50;;;;;;;11.55;3.33;;;6.50;99.90;;;;;;5104608;28;20621;-77
2022/04/26 05:00:16;;;;;;;8.73;3.30;;;6.60;99.90;;;;;;5105200;28;20217;-78
2022/04/26 05:02:42;;;;;;;10.88;3.83;;;6.60;99.90;;;;;;5053509;28;20044;-78
2022/04/26 05:05:08;;;;;;;6.95;3.15;;;6.60;99.90;;;;;;5102798;28;20088;-78
2022/04/26 05:07:33;;;;;;;8.70;3.38;;;6.70;99.90;;;;;;5086837;28;20044;-78
2022/04/26 05:09:59;;;;;;;17.02;3.55;;;6.70;99.90;;;;;;5087326;28;20580;-77
2022/04/26 05:12:25;;;;;;;14.18;3.50;;;6.70;99.90;;;;;;5068997;28;20135;-79
2022/04/26 05:14:51;;;;;;;12.20;3.45;;;6.70;99.90;;;;;;5101763;28;20046;-78
2022/04/26 05:17:16;;;;;;;8.98;3.13;;;7.60;99.90;;;;;;5102536;28;20130;-81
2022/04/26 05:19:42;;;;;;;5.88;3.78;;;6.70;99.90;;;;;;5051299;28;20044;-80
2022/04/26 05:22:11;;;;;;;14.50;3.90;;;6.80;99.90;;;;;;5102736;28;20102;-82
2022/04/26 05:24:53;;;;;;;12.00;3.22;;;6.80;99.90;;;;;;5067608;28;20423;-82
2022/04/26 05:27:26;;;;;;;9.63;3.38;;;6.90;99.90;;;;;;5067538;28;20047;-82
2022/04/26 05:29:53;;;;;;;11.02;3.58;;;7.00;99.90;;;;;;5068588;28;20044;-82
2022/04/26 05:32:24;;;;;;;7.05;3.30;;;7.10;99.90;;;;;;5085324;28;20075;-80
2022/04/26 05:35:00;;;;;;;17.90;4.55;;;7.20;99.90;;;;;;5085466;28;20054;-81
2022/04/26 05:37:27;;;;;;;8.05;3.10;;;7.30;99.90;;;;;;5101682;28;20399;-82
2022/04/26 05:39:55;;;;;;;6.15;2.95;;;7.30;99.90;;;;;;5051344;28;20047;-82
2022/04/26 05:42:21;;;;;;;16.38;3.97;;;7.50;99.90;;;;;;5068125;28;20044;-81
2022/04/26 05:44:47;;;;;;;12.35;3.90;;;7.50;99.90;;;;;;5083970;28;20052;-82
2022/04/26 05:47:13;;;;;;;9.00;4.13;;;7.60;99.90;;;;;;5086319;28;20047;-82
2022/04/26 05:49:39;;;;;;;7.82;3.25;;;7.70;99.90;;;;;;5101484;28;20055;-79
2022/04/26 05:52:05;;;;;;;8.45;3.58;;;7.80;99.90;;;;;;5084744;28;20029;-80
2022/04/26 05:54:31;;;;;;;17.60;3.28;;;7.90;99.90;;;;;;5084286;28;20047;-80
2022/04/26 05:56:57;;;;;;;16.65;3.45;;;8.70;99.90;;;;;;5084620;28;20157;-81
2022/04/26 05:59:24;;;;;;;10.27;3.17;;;8.00;99.90;;;;;;5084617;28;20083;-80
2022/04/26 06:01:51;;;;;;;12.13;2.80;;;8.10;99.90;;;;;;5086100;28;20040;-80
2022/04/26 06:04:18;;;;;;;7.72;3.22;;;8.20;99.90;;;;;;5067882;28;20048;-81
2022/04/26 06:06:43;;;;;;;5.22;2.30;;;8.30;99.90;;;;;;5101572;28;20419;-80
2022/04/26 06:09:09;;;;;;;9.65;2.40;;;8.30;99.90;;;;;;5068671;28;20052;-81
2022/04/26 06:11:35;;;;;;;6.82;2.53;;;8.40;99.90;;;;;;5084865;28;20044;-79
2022/04/26 06:14:02;;;;;;;10.30;2.28;;;8.40;99.90;;;;;;5085759;28;20161;-81
2022/04/26 06:16:28;;;;;;;7.60;2.00;;;9.00;99.90;;;;;;5086026;28;20043;-80
2022/04/26 06:18:54;;;;;;;9.60;2.33;;;8.50;99.90;;;;;;5067457;28;20463;-80
2022/04/26 06:21:20;;;;;;;7.43;2.30;;;8.50;99.90;;;;;;5102300;28;20055;-80
2022/04/26 06:23:46;;;;;;;9.48;2.58;;;8.60;99.90;;;;;;5070157;28;20043;-80
2022/04/26 06:26:12;;;;;;;7.40;1.83;;;8.60;99.90;;;;;;5088531;28;20099;-81
2022/04/26 06:28:38;;;;;;;8.02;2.45;;;8.80;99.90;;;;;;5104250;28;20233;-82
2022/04/26 06:31:04;;;;;;;13.43;2.08;;;9.20;99.90;;;;;;5085483;28;20044;-81
2022/04/26 06:33:29;;;;;;;5.30;2.28;;;9.50;99.90;;;;;;5086191;28;20051;-81
2022/04/26 06:35:55;;;;;;;8.63;2.00;;;9.00;99.90;;;;;;5085178;28;20486;-80
2022/04/26 06:38:24;;;;;;;9.50;1.70;;;9.00;99.90;;;;;;5084323;28;20077;-80
2022/04/26 06:40:51;;;;;;;6.63;1.40;;;9.10;99.90;;;;;;5100690;28;20047;-81
2022/04/26 06:43:18;;;;;;;9.23;1.77;;;10.40;99.90;;;;;;5084926;28;20052;-78
2022/04/26 06:45:46;;;;;;;5.03;1.80;;;9.30;99.90;;;;;;5085618;28;20114;-78
2022/04/26 06:48:13;;;;;;;14.85;2.40;;;9.40;99.90;;;;;;5084235;28;20459;-77
2022/04/26 06:50:39;;;;;;;12.35;1.95;;;9.50;99.90;;;;;;5085512;28;20044;-78
2022/04/26 06:53:06;;;;;;;3.95;1.52;;;9.90;99.90;;;;;;5084273;28;20082;-79
2022/04/26 06:55:32;;;;;;;12.40;2.00;;;9.70;99.90;;;;;;5086099;28;20051;-79
2022/04/26 06:57:57;;;;;;;9.10;1.60;;;10.70;99.90;;;;;;5085438;28;20072;-78
2022/04/26 07:00:25;;;;;;;5.97;1.65;;;10.30;99.90;;;;;;5086367;28;20081;-78
2022/04/26 07:02:50;;;;;;;6.03;1.38;;;9.80;99.90;;;;;;5086181;28;20126;-79
2022/04/26 07:05:16;;;;;;;7.50;1.52;;;9.80;99.90;;;;;;5089166;28;20089;-78
2022/04/26 07:07:43;;;;;;;7.72;1.60;;;9.80;99.90;;;;;;5071172;28;20079;-78
2022/04/26 07:10:10;;;;;;;4.40;1.75;;;9.80;99.90;;;;;;5089992;28;20090;-78
2022/04/26 07:12:36;;;;;;;10.48;1.70;;;9.80;99.90;;;;;;5088661;28;20503;-78
2022/04/26 07:15:03;;;;;;;6.78;1.70;;;10.90;99.90;;;;;;5088196;28;20036;-79
2022/04/26 07:17:28;;;;;;;9.00;1.83;;;9.90;99.90;;;;;;5090758;28;20040;-77
2022/04/26 07:19:54;;;;;;;6.72;1.80;;;9.90;99.90;;;;;;5071234;28;20476;-77
2022/04/26 07:22:20;;;;;;;7.00;1.63;;;9.90;99.90;;;;;;5088464;28;20040;-78
2022/04/26 07:24:46;;;;;;;9.60;1.88;;;10.00;99.90;;;;;;5055260;28;20142;-77
2022/04/26 07:27:11;;;;;;;6.28;1.58;;;10.00;99.90;;;;;;5087943;28;20487;-77
2022/04/26 07:29:41;;;;;;;10.18;1.85;;;10.10;99.90;;;;;;5105233;28;20128;-79
2022/04/26 07:32:07;;;;;;;5.25;1.73;;;10.10;99.90;;;;;;5087292;28;20129;-78
2022/04/26 07:34:33;;;;;;;7.18;1.80;;;10.20;99.90;;;;;;5105688;28;20562;-77
2022/04/26 07:37:02;;;;;;;6.38;2.75;;;10.30;99.90;;;;;;5104973;28;20076;-78
2022/04/26 07:39:29;;;;;;;7.28;2.15;;;10.30;99.90;;;;;;5088471;28;20044;-78
2022/04/26 07:41:54;;;;;;;9.32;1.85;;;10.30;99.90;;;;;;5070887;28;20413;-78
2022/04/26 07:44:20;;;;;;;5.95;1.70;;;10.30;99.90;;;;;;5070248;28;20105;-78
2022/04/26 07:46:48;;;;;;;5.45;1.75;;;10.40;99.90;;;;;;5104788;28;20048;-78
2022/04/26 07:49:15;;;;;;;4.90;1.60;;;10.50;99.90;;;;;;5087591;28;20384;-78
2022/04/26 07:51:42;;;;;;;12.77;2.53;;;10.50;99.90;;;;;;5090323;28;20055;-77
2022/04/26 07:54:11;;;;;;;8.57;1.60;;;10.70;99.90;;;;;;5087612;28;20048;-78
2022/04/26 07:56:37;;;;;;;7.68;1.52;;;10.70;99.90;;;;;;5087434;28;20044;-78
2022/04/26 07:59:04;;;;;;;7.20;1.75;;;10.80;99.90;;;;;;5089180;28;20067;-78
2022/04/26 08:01:35;;;;;;;5.70;1.70;;;10.80;99.90;;;;;;5104369;28;20040;-78
2022/04/26 08:04:01;;;;;;;7.97;2.00;;;11.20;99.90;;;;;;5105355;28;20386;-78
2022/04/26 08:06:29;;;;;;;4.68;1.70;;;11.50;99.90;;;;;;5070567;28;20043;-78
2022/04/26 08:08:55;;;;;;;4.68;1.55;;;11.80;99.90;;;;;;5071638;28;20063;-78
2022/04/26 08:11:30;;;;;;;4.88;1.38;;;11.90;99.90;;;;;;5088494;28;20051;-77
2022/04/26 08:13:56;;;;;;;6.72;1.30;;;11.80;99.90;;;;;;5071098;28;20487;-79
2022/04/26 08:16:22;;;;;;;3.85;1.10;;;11.70;99.90;;;;;;5070600;28;20067;-78
2022/04/26 08:18:48;;;;;;;3.33;1.13;;;11.80;99.90;;;;;;5088156;28;20116;-78
2022/04/26 08:21:14;;;;;;;4.78;1.33;;;12.20;99.90;;;;;;5070928;28;20119;-77
2022/04/26 08:29:12;;;;;;;4.68;1.50;;;13.20;99.90;;;;;;5072655;28;20047;-78
2022/04/26 08:31:38;;;;;;;5.90;1.50;;;12.80;99.90;;;;;;5070141;28;20716;-77
2022/04/26 08:34:04;;;;;;;4.78;1.25;;;12.50;99.90;;;;;;5088921;28;20036;-78
2022/04/26 08:36:31;;;;;;;3.25;0.85;;;12.50;99.90;;;;;;5087829;28;20044;-77
2022/04/26 08:38:57;;;;;;;4.78;1.35;;;12.50;99.90;;;;;;5087239;28;20088;-77
2022/04/26 08:41:23;;;;;;;4.95;1.25;;;12.50;99.90;;;;;;5086769;28;20040;-77
2022/04/26 08:43:49;;;;;;;4.13;1.33;;;12.60;99.90;;;;;;5068696;28;20052;-77
2022/04/26 08:46:15;;;;;;;4.05;1.23;;;12.50;99.90;;;;;;5087501;28;20044;-77
2022/04/26 08:51:25;;;;;;;6.07;1.58;;;12.50;99.90;;;;;;5087374;28;20093;-78
2022/04/26 08:53:51;;;;;;;5.75;1.30;;;12.90;99.90;;;;;;5086782;28;20136;-78
2022/04/26 08:56:17;;;;;;;2.65;1.30;;;13.40;99.90;;;;;;5087495;28;20127;-77
2022/04/26 08:58:43;;;;;;;5.55;1.10;;;13.70;99.90;;;;;;5087217;28;20036;-78
2022/04/26 09:01:18;;;;;;;3.60;1.30;;;14.00;99.90;;;;;;5087597;28;20040;-78
2022/04/26 09:03:56;;;;;;;6.38;1.38;;;14.30;99.90;;;;;;5069312;28;20039;-77
2022/04/26 09:06:36;;;;;;;7.75;1.23;;;14.30;99.90;;;;;;5087027;28;20051;-77
2022/04/26 09:09:13;;;;;;;4.03;1.00;;;14.30;99.90;;;;;;5103192;28;20071;-76
2022/04/26 09:11:39;;;;;;;4.80;1.30;;;14.10;99.90;;;;;;5068992;28;20086;-77
2022/04/26 09:14:08;;;;;;;4.28;1.25;;;13.90;99.90;;;;;;5102506;28;20491;-77
2022/04/26 09:16:35;;;;;;;6.43;1.50;;;13.60;99.90;;;;;;5053274;28;20044;-78
2022/04/26 09:19:06;;;;;;;8.85;1.30;;;13.50;99.90;;;;;;5052554;28;20444;-78
2022/04/26 09:21:35;;;;;;;3.78;1.25;;;13.30;99.90;;;;;;5088848;28;20407;-78
2022/04/26 09:24:06;;;;;;;6.05;1.40;;;13.50;99.90;;;;;;5087105;28;20048;-77
2022/04/26 09:26:39;;;;;;;2.60;1.27;;;13.70;99.90;;;;;;5086623;28;20158;-77
2022/04/26 09:29:07;;;;;;;5.88;1.58;;;13.90;99.90;;;;;;5087102;28;20051;-77
2022/04/26 09:31:37;;;;;;;1.92;0.77;;;14.00;99.90;;;;;;5086449;28;20403;-76
2022/04/26 09:34:14;;;;;;;4.60;1.52;;;14.00;99.80;;;;;;5086340;28;20048;-77
2022/04/26 09:36:45;;;;;;;3.38;1.10;;;14.00;98.50;;;;;;5087685;28;20055;-76
2022/04/26 09:39:25;;;;;;;4.63;1.25;;;13.80;98.40;;;;;;5087819;28;20040;-77
2022/04/26 09:41:51;;;;;;;2.10;1.00;;;13.60;97.80;;;;;;5087502;28;20044;-78
2022/04/26 09:44:28;;;;;;;2.30;1.08;;;13.60;99.50;;;;;;5086362;28;20056;-78
2022/04/26 09:46:54;;;;;;;2.97;1.10;;;14.50;99.80;;;;;;5086742;28;20048;-78
2022/04/26 09:49:22;;;;;;;3.92;1.17;;;14.00;98.90;;;;;;5085134;28;20051;-78
2022/04/26 09:51:51;;;;;;;2.50;1.38;;;13.90;98.10;;;;;;5102560;28;20051;-78
2022/04/26 09:54:17;;;;;;;3.47;1.20;;;14.00;98.00;;;;;;5087851;28;20071;-77
2022/04/26 09:56:47;;;;;;;4.72;1.30;;;14.00;97.60;;;;;;5102957;28;20474;-77
2022/04/26 09:59:18;;;;;;;3.80;1.27;;;13.80;96.00;;;;;;5086372;28;20451;-76
2022/04/26 10:01:47;;;;;;;3.35;0.90;;;13.60;95.90;;;;;;5084898;28;20079;-77
2022/04/26 10:04:23;;;;;;;3.22;1.05;;;13.70;97.30;;;;;;5087312;28;20043;-77
2022/04/26 10:06:57;;;;;;;3.15;1.02;;;13.80;95.40;;;;;;5102476;28;20048;-77
2022/04/26 10:09:24;;;;;;;4.03;1.30;;;13.80;95.90;;;;;;5068587;28;20115;-77
2022/04/26 10:11:55;;;;;;;3.28;1.40;;;13.20;96.60;;;;;;5086071;28;20050;-77
2022/04/26 10:14:23;;;;;;;8.02;1.40;;;14.70;94.80;;;;;;5068814;28;20062;-77
2022/04/26 10:16:50;;;;;;;3.70;1.20;;;14.00;95.50;;;;;;5102748;28;20046;-77
2022/04/26 10:19:16;;;;;;;4.65;1.08;;;13.90;96.50;;;;;;5084861;28;20052;-78
2022/04/26 10:21:49;;;;;;;3.92;1.40;;;14.00;96.40;;;;;;5102440;28;20059;-77
2022/04/26 10:24:16;;;;;;;;;;;14.20;96.90;;;;;;5087550;28;20054;-78
2022/04/26 10:26:42;;;;;;;2.83;0.90;;;14.40;92.10;;;;;;5087110;28;19924;-78
2022/04/26 10:29:08;;;;;;;7.95;1.30;;;14.60;96.30;;;;;;5085825;28;20053;-77
2022/04/26 10:31:56;;;;;;;3.78;1.50;;;14.80;95.30;;;;;;5086165;28;20052;-78
2022/04/26 10:34:24;;;;;;;4.25;1.23;;;15.00;92.00;;;;;;5086936;28;20091;-77
2022/04/26 10:36:54;;;;;;;3.05;1.02;;;15.10;92.70;;;;;;5086522;28;20047;-77
2022/04/26 10:39:24;;;;;;;4.15;1.42;;;15.10;89.00;;;;;;5088955;28;20059;-77
2022/04/26 10:41:51;;;;;;;1.95;0.93;;;15.20;90.90;;;;;;5106226;28;20048;-77
2022/04/26 10:44:16;;;;;;;3.65;0.77;;;15.50;91.10;;;;;;5089093;28;20095;-77
2022/04/26 10:46:44;;;;;;;3.85;1.30;;;15.70;90.50;;;;;;5091060;28;20075;-78
2022/04/26 10:49:23;;;;;;;2.85;0.98;;;15.70;88.60;;;;;;5071546;28;20067;-77
2022/04/26 10:51:56;;;;;;;6.97;2.17;;;15.60;81.70;;;;;;5089403;28;20103;-78
2022/04/26 10:54:55;;;;;;;2.60;1.10;;;15.40;87.30;;;;;;5091788;28;20040;-78
2022/04/26 10:57:23;;;;;;;4.75;1.58;;;15.40;82.20;;;;;;5106250;28;20040;-77
2022/04/26 10:59:56;;;;;;;4.85;1.23;;;15.70;82.90;;;;;;5090499;28;20044;-78
2022/04/26 11:02:23;;;;;;;5.25;1.23;;;15.90;81.70;;;;;;5088929;28;20696;-76
2022/04/26 11:04:58;;;;;;;5.00;1.45;;;15.90;80.00;;;;;;5089012;28;20048;-76
2022/04/26 11:07:27;;;;;;;2.83;1.20;;;16.10;76.30;;;;;;5105689;28;20087;-75
2022/04/26 11:09:58;;;;;;;4.00;1.17;;;16.30;78.50;;;;;;5071016;28;20400;-77
2022/04/26 11:12:26;;;;;;;3.55;1.00;;;16.50;71.10;;;;;;5088663;28;20062;-77
2022/04/26 11:14:54;;;;;;;3.13;1.23;;;16.40;73.60;;;;;;5087841;28;20028;-77
2022/04/26 11:17:24;;;;;;;4.47;1.10;;;16.30;72.80;;;;;;5089104;28;20040;-77
2022/04/26 11:19:58;;;;;;;2.08;1.00;;;16.30;72.90;;;;;;5104825;28;20500;-76
2022/04/26 11:22:26;;;;;;;3.53;1.08;;;16.30;71.00;;;;;;5087672;28;20082;-77
2022/04/26 11:30:51;;;;;;;3.15;0.90;;;17.20;69.50;;;;;;5074525;28;20048;-78
2022/04/26 11:33:19;;;;;;;2.45;0.90;;;17.30;67.00;;;;;;5105467;28;20048;-76
2022/04/26 11:35:51;;;;;;;2.72;0.95;;;17.30;65.70;;;;;;5070393;28;20048;-77
2022/04/26 11:38:17;;;;;;;3.92;1.08;;;17.30;64.00;;;;;;5088522;28;20048;-76
2022/04/26 11:40:54;;;;;;;3.25;1.33;;;17.30;64.40;;;;;;5104459;28;20059;-77
2022/04/26 11:43:28;;;;;;;2.92;1.00;;;17.20;59.60;;;;;;5087064;28;20056;-78
2022/04/26 11:45:55;;;;;;;5.32;1.17;;;16.90;62.90;;;;;;5104727;28;20059;-76
2022/04/26 11:48:24;;;;;;;3.75;1.15;;;17.10;64.60;;;;;;5103155;28;20044;-77
2022/04/26 11:50:52;;;;;;;3.22;0.98;;;17.30;63.60;;;;;;5104910;28;20058;-77
2022/04/26 11:53:22;;;;;;;6.53;1.02;;;17.20;62.70;;;;;;5088452;28;20071;-76
2022/04/26 11:55:53;;;;;;;5.63;1.20;;;17.20;63.20;;;;;;5070100;28;20040;-77
2022/04/26 11:58:27;;;;;;;3.35;0.90;;;17.10;61.90;;;;;;5070428;28;20051;-77
2022/04/26 12:01:11;;;;;;;3.22;1.25;;;16.70;62.00;;;;;;5103858;28;20459;-75
2022/04/26 12:03:56;;;;;;;1.42;0.88;;;16.30;62.30;;;;;;5104490;28;20082;-77
2022/04/26 12:06:31;;;;;;;2.15;1.00;;;16.40;65.10;;;;;;5086926;28;20040;-76
2022/04/26 12:09:05;;;;;;;2.55;1.10;;;16.60;62.40;;;;;;5087271;28;20407;-77
2022/04/26 12:11:36;;;;;;;4.43;1.10;;;16.80;63.40;;;;;;5104226;28;20478;-77
2022/04/26 12:14:07;;;;;;;3.30;1.02;;;17.20;63.00;;;;;;5086279;28;20059;-77
2022/04/26 12:16:59;;;;;;;2.13;1.02;;;17.40;60.90;;;;;;5104549;28;20260;-77
2022/04/26 12:19:37;;;;;;;4.13;1.23;;;17.70;57.60;;;;;;5088844;28;20048;-78
2022/04/26 12:22:03;;;;;;;4.05;0.75;;;17.90;57.60;;;;;;5088150;28;20044;-76
2022/04/26 12:24:31;;;;;;;4.82;1.20;;;17.70;57.30;;;;;;5089400;28;20444;-78
2022/04/26 12:27:04;;;;;;;6.35;1.52;;;17.60;58.00;;;;;;5087840;28;20137;-77
2022/04/26 12:29:37;;;;;;;3.78;1.20;;;17.60;58.60;;;;;;5088679;28;20165;-77
2022/04/26 12:32:08;;;;;;;4.45;1.15;;;17.60;57.80;;;;;;5087588;28;20399;-76
2022/04/26 12:34:36;;;;;;;3.58;1.17;;;17.70;57.50;;;;;;5069785;28;20044;-78
2022/04/26 12:37:08;;;;;;;2.83;0.98;;;17.70;58.20;;;;;;5070592;28;20044;-78
2022/04/26 12:39:45;;;;;;;6.43;1.17;;;17.90;57.50;;;;;;5086074;28;20054;-77
2022/04/26 12:42:13;;;;;;;3.85;1.17;;;17.90;55.90;;;;;;5086742;28;20052;-77
2022/04/26 12:44:52;;;;;;;2.60;0.98;;;18.00;57.20;;;;;;5103137;28;20048;-77
2022/04/26 12:50:28;;;;;;;3.08;0.80;;;18.20;55.80;;;;;;5086473;28;20090;-78
2022/04/26 12:52:57;;;;;;;3.17;1.15;;;18.10;53.60;;;;;;5086856;28;20093;-78
2022/04/26 12:55:41;;;;;;;2.83;1.25;;;18.20;56.10;;;;;;5085614;28;20131;-78
2022/04/26 12:58:17;;;;;;;2.63;0.80;;;18.40;54.10;;;;;;5103307;28;20124;-78
2022/04/26 13:00:46;;;;;;;2.22;0.82;;;18.70;55.40;;;;;;5084318;28;20093;-78
2022/04/26 13:03:13;;;;;;;3.20;1.08;;;18.80;54.40;;;;;;5069370;28;20048;-77
2022/04/26 13:05:46;;;;;;;3.40;0.93;;;18.50;54.10;;;;;;5101974;28;20067;-77
2022/04/26 13:08:14;;;;;;;5.03;1.30;;;18.10;55.10;;;;;;5102584;28;20059;-77
2022/04/26 13:10:41;;;;;;;3.58;0.95;;;17.80;55.70;;;;;;5068857;28;20044;-76
2022/04/26 13:13:08;;;;;;;3.20;1.05;;;17.50;56.00;;;;;;5068681;28;20044;-77
2022/04/26 13:15:34;;;;;;;2.13;0.85;;;17.10;56.20;;;;;;5102770;28;20040;-76
2022/04/26 13:18:00;;;;;;;4.47;1.42;;;16.70;57.40;;;;;;5101727;28;20096;-77
2022/04/26 13:20:26;;;;;;;4.50;1.40;;;16.30;58.40;;;;;;5102882;28;20048;-77
2022/04/26 13:22:52;;;;;;;2.17;1.20;;;16.10;59.70;;;;;;5101782;28;20052;-76
2022/04/26 13:25:18;;;;;;;3.80;1.58;;;16.10;60.90;;;;;;5085188;28;20058;-76
2022/04/26 13:27:46;;;;;;;11.80;1.67;;;16.10;61.60;;;;;;5086748;28;20089;-77
2022/04/26 13:30:12;;;;;;;5.85;1.50;;;16.00;61.40;;;;;;5101906;28;20466;-77
2022/04/26 13:32:38;;;;;;;5.70;1.15;;;15.80;62.00;;;;;;5069383;28;20048;-77
2022/04/26 13:35:05;;;;;;;3.00;0.95;;;15.70;62.40;;;;;;5084673;28;20048;-77
2022/04/26 13:37:31;;;;;;;4.85;1.35;;;15.70;62.80;;;;;;5069449;28;20036;-76
2022/04/26 13:39:59;;;;;;;3.50;1.50;;;15.70;62.70;;;;;;5086299;28;20123;-76
2022/04/26 13:42:27;;;;;;;6.00;1.70;;;15.90;62.80;;;;;;5086808;28;20048;-77
2022/04/26 13:44:53;;;;;;;2.42;1.35;;;16.30;61.50;;;;;;5086591;28;20052;-78
2022/04/26 13:47:19;;;;;;;5.70;1.42;;;16.50;59.20;;;;;;5085192;28;20073;-78
2022/04/26 13:49:45;;;;;;;2.78;1.20;;;16.60;58.40;;;;;;5102972;28;20044;-77
2022/04/26 13:52:13;;;;;;;4.90;1.17;;;16.80;58.30;;;;;;5086880;28;20400;-77
2022/04/26 13:54:41;;;;;;;3.15;1.58;;;17.10;57.80;;;;;;5070012;28;20094;-77
2022/04/26 13:57:07;;;;;;;3.80;1.80;;;17.00;57.10;;;;;;5068437;28;20044;-77
2022/04/26 13:59:33;;;;;;;1.98;1.25;;;16.80;57.00;;;;;;5086536;28;20051;-77
2022/04/26 14:01:59;;;;;;;2.72;1.10;;;16.80;57.20;;;;;;5085574;28;20048;-77
2022/04/26 14:04:25;;;;;;;2.53;0.85;;;17.10;57.50;;;;;;5068524;28;20410;-76
2022/04/26 14:06:50;;;;;;;4.53;1.42;;;17.60;57.50;;;;;;5086989;28;20040;-77
2022/04/26 14:09:21;;;;;;;3.28;1.25;;;18.00;56.80;;;;;;5050694;28;20094;-77
2022/04/26 14:11:47;;;;;;;3.33;1.40;;;18.40;55.70;;;;;;5069791;28;20047;-79
2022/04/26 14:22:35;;;;;;;4.85;1.27;;;18.40;53.10;;;;;;5073714;28;20048;-77
2022/04/26 14:25:03;;;;;;;3.33;1.33;;;18.30;53.20;;;;;;5105480;28;20482;-78
2022/04/26 14:27:30;;;;;;;2.42;0.80;;;18.40;53.00;;;;;;5088522;28;20055;-79
2022/04/26 14:29:57;;;;;;;3.92;0.85;;;18.50;52.70;;;;;;5089767;28;20040;-79
2022/04/26 14:32:23;;;;;;;2.88;0.90;;;18.70;52.30;;;;;;5106067;28;20051;-79
2022/04/26 14:34:49;;;;;;;4.93;1.10;;;18.60;52.40;;;;;;5054478;28;20056;-78
2022/04/26 14:37:16;;;;;;;3.25;1.13;;;18.60;51.90;;;;;;5106287;28;20046;-78
2022/04/26 14:39:42;;;;;;;4.82;1.25;;;18.20;51.70;;;;;;5087741;28;20190;-78
2022/04/26 14:42:08;;;;;;;1.88;0.80;;;18.30;52.10;;;;;;5088330;28;20097;-77
2022/04/26 14:44:35;;;;;;;3.25;1.08;;;18.20;52.30;;;;;;5089243;28;20149;-78
2022/04/26 14:47:02;;;;;;;1.67;1.00;;;18.20;52.60;;;;;;5088184;28;20040;-78
2022/04/26 14:49:31;;;;;;;3.28;1.13;;;18.30;52.10;;;;;;5071561;28;20044;-78
2022/04/26 14:51:56;;;;;;;4.47;1.20;;;18.30;51.70;;;;;;5089472;28;20069;-78
2022/04/26 14:54:22;;;;;;;2.92;0.98;;;18.30;52.10;;;;;;5105621;28;20071;-79
2022/04/26 14:56:50;;;;;;;2.78;0.88;;;18.00;52.10;;;;;;5071136;28;20070;-78
2022/04/26 14:59:19;;;;;;;5.38;1.50;;;18.00;52.20;;;;;;5087959;28;20499;-79
2022/04/26 15:01:46;;;;;;;3.70;1.10;;;17.90;52.40;;;;;;5105954;28;20052;-77
2022/04/26 15:04:12;;;;;;;3.22;1.00;;;17.60;52.50;;;;;;5070740;28;20145;-76
2022/04/26 15:06:39;;;;;;;5.28;0.93;;;17.60;52.60;;;;;;5105490;28;20051;-77
2022/04/26 15:16:37;;;;;;;1.27;0.80;;;17.60;52.70;;;;;;5089308;28;20562;-78
2022/04/26 15:17:19;;;;;;;4.65;1.00;;;17.60;53.10;;;;;;5087701;28;20150;-77
2022/04/26 15:19:44;;;;;;;4.22;1.23;;;17.60;53.20;;;;;;5105163;28;20040;-78
2022/04/26 15:22:11;;;;;;;6.03;1.60;;;17.60;53.20;;;;;;5087271;28;20083;-76
2022/04/26 15:24:37;;;;;;;4.88;1.08;;;17.70;53.40;;;;;;5086826;28;20098;-75
2022/04/26 15:27:03;;;;;;;2.45;1.10;;;17.60;53.30;;;;;;5104743;28;20500;-76
2022/04/26 15:29:31;;;;;;;6.15;1.05;;;17.30;53.60;;;;;;5104453;28;20488;-77
2022/04/26 15:31:57;;;;;;;4.38;1.23;;;16.90;54.10;;;;;;5087997;28;20125;-77
2022/04/26 15:34:23;;;;;;;4.63;1.10;;;16.40;54.60;;;;;;5088536;28;20467;-77
2022/04/26 15:36:48;;;;;;;3.15;0.95;;;15.90;55.60;;;;;;5089867;28;20075;-77
2022/04/26 15:39:14;;;;;;;4.38;1.40;;;15.50;56.20;;;;;;5070685;28;20120;-77
2022/04/26 15:41:40;;;;;;;3.03;1.25;;;15.10;56.90;;;;;;5105526;28;20483;-77
2022/04/26 15:44:06;;;;;;;4.65;1.17;;;14.90;57.50;;;;;;5103683;28;20060;-75
2022/04/26 15:46:31;;;;;;;4.78;1.42;;;14.80;58.30;;;;;;5103770;28;20369;-75
2022/04/26 15:48:58;;;;;;;5.13;1.25;;;14.90;58.60;;;;;;5104484;28;20052;-75
2022/04/26 15:51:25;;;;;;;4.03;1.30;;;15.00;58.90;;;;;;5053880;28;20496;-76
2022/04/26 15:53:51;;;;;;;3.15;1.25;;;15.00;58.20;;;;;;5104774;28;20502;-77
2022/04/26 15:56:17;;;;;;;2.70;1.10;;;15.00;58.70;;;;;;5086223;28;20047;-76
2022/04/26 15:58:42;;;;;;;1.88;1.00;;;14.90;57.90;;;;;;5104467;28;20044;-76
2022/04/26 16:01:09;;;;;;;2.80;1.10;;;14.90;57.90;;;;;;5069732;28;20090;-78
2022/04/26 16:03:35;;;;;;;3.10;0.95;;;14.40;58.20;;;;;;5088130;28;20032;-76
2022/04/26 16:06:02;;;;;;;4.50;1.30;;;14.20;59.00;;;;;;5086784;28;20483;-77
2022/04/26 16:08:27;;;;;;;4.28;1.25;;;14.00;60.10;;;;;;5069464;28;20502;-77
2022/04/26 16:22:10;;;;;;;3.28;0.82;;;13.40;65.70;;;;;;5087132;28;20058;-76
2022/04/26 16:24:38;;;;;;;4.97;1.17;;;13.30;66.90;;;;;;5103500;28;20075;-76
2022/04/26 16:27:10;;;;;;;3.33;1.42;;;13.20;67.60;;;;;;5086308;28;20048;-76
2022/04/26 16:29:36;;;;;;;2.80;1.23;;;13.10;68.70;;;;;;5103361;28;20059;-76
2022/04/26 16:32:02;;;;;;;4.38;1.42;;;13.10;69.10;;;;;;5086886;28;20043;-76
2022/04/26 16:34:28;;;;;;;5.00;1.40;;;12.90;70.20;;;;;;5086738;28;20040;-76
2022/04/26 16:36:54;;;;;;;4.60;1.30;;;12.80;71.50;;;;;;5086711;28;20051;-76
2022/04/26 16:39:20;;;;;;;3.65;0.85;;;12.70;72.50;;;;;;5087271;28;20054;-76
2022/04/26 16:41:45;;;;;;;5.03;1.20;;;12.60;73.30;;;;;;5087631;28;20044;-75
2022/04/26 16:44:11;;;;;;;3.88;1.13;;;12.50;73.00;;;;;;5103251;28;20479;-76
2022/04/26 16:46:37;;;;;;;3.92;1.40;;;12.40;73.40;;;;;;5087311;28;20047;-76
2022/04/26 16:49:03;;;;;;;3.72;1.33;;;12.30;74.30;;;;;;5087929;28;20047;-77
2022/04/26 16:51:30;;;;;;;2.83;1.10;;;12.30;75.00;;;;;;5068895;28;20131;-76
2022/04/26 16:53:59;;;;;;;2.70;1.10;;;12.20;74.90;;;;;;5088022;28;20097;-76
2022/04/26 16:56:25;;;;;;;4.47;1.58;;;12.10;75.30;;;;;;5087095;28;20097;-76
2022/04/26 16:58:51;;;;;;;5.72;1.25;;;12.00;75.60;;;;;;5086304;28;20040;-76
2022/04/26 17:01:16;;;;;;;4.43;1.35;;;11.90;75.70;;;;;;5085780;28;20063;-76
2022/04/26 17:03:42;;;;;;;6.20;1.30;;;11.80;76.10;;;;;;5086633;28;20052;-74
2022/04/26 17:06:09;;;;;;;3.00;1.05;;;11.70;76.10;;;;;;5103184;28;20101;-75
2022/04/26 17:08:34;;;;;;;6.00;1.42;;;11.90;77.20;;;;;;5101816;28;20056;-75
2022/04/26 17:13:45;;;;;;;5.80;1.33;;;11.50;79.30;;;;;;5085833;28;20084;-78
2022/04/26 17:16:12;;;;;;;3.50;1.30;;;11.50;80.20;;;;;;5069264;28;20146;-76